Mill Hall, Pennsylvania
Current Conditions -  °F | °C
As of 2:55 AM on Tuesday 21 Oct 2014 (Local Time) from KUNV Reporting Station
Overcast Overcast  
Wind Chill: 48°   Ceiling: 4000
Heat Index: 48°   Visibility: 10mi
Dew Point: 42°   Wind: 0mph
Humidity: 80%   Direction: NA
Pressure: 29.85"   Gusts: NA
Location:  41.11°N, 77.48°W
Report Text: KUNV 210655Z AUTO 00000KT 10SM SCT030 OVC040 09/06 A2985 RMK AO2 T00900057
Loading
Personal Weather Stations






























Interactive Weather Map
Tropical Storm Tracking
New forecast layout! Learn more

10-Day Weather Forecast

Advertisements
Track Severe Weather on mobile